Aérodrome :
LOGIN :

S'inscrire | Disclaimer

   EN    FR    IT 

 










Légende :    VFR   VFR Marginal   IFR   IFR Intensif   IFR Très Intensif
Visi : 
Plafond : 
>= 8 km
>= 3000ft
5 à 8 km
1000 à 3000 ft
1500m à 5 km
500 à 1000 ft
800 à 1500m
200 à 500 ft
< 800m
< 200 ft
Symboles :   Orages  Brouillard  Fortes neiges  Fortes précipitations  Vent > 20 kt
SIGMETs :   Divers  Orages  Givrage  Turbulence  Onde Orograph.  Cendres Volcan.






- Altitude de l'aérodrome : 1906 ft
- Code IATA : INN


LOWI - Innsbruck

DERNIER METAR :
  • 230950Z 02003KT 290V060 9999 FEW040 BKN120 18/11 Q1015 NOSIG

METARs EXPIRÉS :
  • 230920Z 13004KT 050V210 9999 FEW040 BKN120 17/10 Q1015 NOSIG
  • 230850Z VRB04KT 9999 FEW030 BKN120 16/10 Q1016 NOSIG
  • 230820Z 04003KT 320V100 9999 FEW030 BKN120 16/10 Q1016 NOSIG
  • 230750Z 07006KT 030V140 9999 FEW025 BKN120 15/10 Q1016 NOSIG
  • 230720Z 07006KT 030V110 9999 FEW020 BKN110 15/11 Q1016 NOSIG
  • 230650Z 08004KT 040V130 9999 FEW020 BKN110 13/09 Q1017 NOSIG
  • 230620Z 07004KT 9999 FEW020 BKN110 12/10 Q1017 NOSIG
  • 230550Z 12003KT 080V150 9999 FEW030 BKN110 12/09 Q1017 NOSIG
  • 230520Z 10005KT 9999 FEW028 BKN100 12/09 Q1017 NOSIG

TAF TAF LOWI
Valide du 23 à 06h jusqu'au 24 à 06h UTC


230515Z 2306/2406 VRB03KT 9999 SCT030 SCT080 TX19/2313Z TN10/2402Z
BECMG 2308/2310 08008KT
TEMPO 2310/2321 VRB15G25KT SHRA SCT040CB BKN050
PROB40
TEMPO 2312/2316 TSRA
BECMG 2318/2321 VRB02KT



MET'MAP, la Météo Aéronautique d'un coup d'oeil ! - Copyright ORBIFLY Décembre 2007 - Disclaimer

ORBIFLY MET'MAP TEAM :

Programmation & Développement : Alexandra Zaïnal
Sur une idée originale de : Baudouin d'Aumeries
Soutien technique & logistique : Manuel Goepfert
Assistance : Marc-Olivier Méhu




SOURCES & CREDITS :

   NOAA